createdAt,value
2018-07-27T18:14:37.297Z,38.55
2018-07-27T18:17:06.388Z,40.03
2018-07-27T18:19:35.507Z,38.85
2018-07-27T18:22:04.684Z,38.57
2018-07-27T18:24:33.922Z,41.00
2018-07-27T18:27:03.175Z,41.07
2018-07-27T18:29:32.283Z,40.55
2018-07-27T18:32:01.879Z,40.07
2018-07-27T18:34:31.187Z,41.05
2018-07-27T18:37:00.345Z,41.86
2018-07-27T18:39:29.490Z,43.05
2018-07-27T18:41:58.609Z,42.55
2018-07-27T18:44:27.869Z,42.95
2018-07-27T18:46:57.021Z,43.51
2018-07-27T18:49:26.169Z,44.86
2018-07-27T18:51:55.533Z,45.70
2018-07-27T18:54:24.761Z,45.30
2018-07-27T18:56:54.042Z,45.39
2018-07-27T18:59:23.404Z,45.15
2018-07-27T19:01:52.676Z,46.42
2018-07-27T19:04:22.086Z,47.62
2018-07-27T19:06:51.292Z,45.27
2018-07-27T19:09:20.490Z,47.21
2018-07-27T19:11:49.682Z,47.36
2018-07-27T19:14:18.773Z,48.73
2018-07-27T19:16:48.014Z,48.40
2018-07-27T19:19:17.248Z,47.63
2018-07-27T19:21:46.402Z,50.21
2018-07-27T19:24:15.545Z,50.28
2018-07-27T19:26:44.671Z,50.45
2018-07-27T19:29:13.929Z,50.82
2018-07-27T19:31:43.030Z,50.80
2018-07-27T19:34:12.168Z,51.27
2018-07-27T19:36:41.383Z,50.26
2018-07-27T19:39:12.064Z,52.19
2018-07-27T19:41:41.920Z,51.76
2018-07-27T19:44:11.244Z,53.09
2018-07-27T19:46:40.492Z,51.86
2018-07-27T19:49:09.828Z,52.70
2018-07-27T19:51:38.866Z,52.42
2018-07-27T19:54:07.977Z,54.35
2018-07-27T19:56:37.050Z,54.83
2018-07-27T19:59:06.197Z,55.51
2018-07-27T20:01:35.453Z,54.32
2018-07-27T20:04:04.710Z,54.25
2018-07-27T20:06:33.859Z,54.23
2018-07-27T20:09:02.999Z,55.72
2018-07-27T20:11:32.105Z,54.67
2018-07-27T20:14:01.265Z,55.93
2018-07-27T20:16:30.333Z,55.52
2018-07-27T20:18:59.548Z,55.91
2018-07-27T20:21:28.749Z,57.85
2018-07-27T20:23:57.818Z,57.66
2018-07-27T20:26:26.952Z,58.36
2018-07-27T20:28:56.114Z,55.58
2018-07-27T20:31:25.192Z,58.22
2018-07-27T20:33:54.328Z,57.48
2018-07-27T20:36:23.727Z,58.03
2018-07-27T20:38:52.865Z,58.48
2018-07-27T20:41:21.964Z,58.66
2018-07-27T20:43:51.297Z,58.55
2018-07-27T20:46:20.405Z,60.72
2018-07-27T20:48:49.616Z,59.25
2018-07-27T20:51:18.783Z,59.43
2018-07-27T20:53:48.136Z,58.22
2018-07-27T20:56:17.265Z,58.38
2018-07-27T20:58:46.442Z,59.71
2018-07-27T21:01:15.593Z,58.60
2018-07-27T21:03:44.714Z,60.18
2018-07-27T21:06:13.981Z,58.82
2018-07-27T21:08:43.082Z,60.90
2018-07-27T21:11:12.416Z,58.86
2018-07-27T21:13:41.596Z,61.09
2018-07-27T21:16:10.844Z,60.77
2018-07-27T21:18:40.001Z,62.15
2018-07-27T21:21:09.190Z,60.16
2018-07-27T21:23:38.248Z,60.12
2018-07-27T21:26:07.474Z,61.52
2018-07-27T21:28:36.574Z,61.27
2018-07-27T21:31:05.698Z,61.82
2018-07-27T21:33:34.942Z,60.40
2018-07-27T21:36:04.236Z,61.51
2018-07-27T21:38:33.340Z,63.14
2018-07-27T21:41:02.526Z,62.24
2018-07-27T21:43:31.665Z,61.11
2018-07-27T21:46:00.758Z,63.09
2018-07-27T21:48:29.873Z,62.75
2018-07-27T21:50:59.049Z,63.78
2018-07-27T21:53:28.252Z,63.84
2018-07-27T21:55:57.415Z,63.61
2018-07-27T21:58:26.528Z,63.76
2018-07-27T22:00:55.722Z,63.80
2018-07-27T22:03:24.833Z,65.53
2018-07-27T22:05:53.892Z,65.69
2018-07-27T22:08:23.020Z,65.44
2018-07-27T22:10:52.170Z,64.66
2018-07-27T22:13:21.336Z,65.54
2018-07-27T22:15:50.417Z,64.36
2018-07-27T22:18:19.653Z,64.82
2018-07-27T22:20:48.739Z,65.78
2018-07-27T22:23:17.986Z,66.29
2018-07-27T22:25:47.118Z,65.88
2018-07-27T22:28:16.412Z,66.46
2018-07-27T22:30:45.576Z,66.98
2018-07-27T22:33:14.714Z,66.19
2018-07-27T22:35:43.892Z,66.94
2018-07-27T22:38:12.986Z,65.71
2018-07-27T22:40:42.191Z,66.74
2018-07-27T22:43:11.279Z,66.54
2018-07-27T22:45:40.381Z,66.67
2018-07-27T22:48:09.764Z,68.94
2018-07-27T22:50:38.883Z,67.59
2018-07-27T22:53:08.035Z,68.22
2018-07-27T22:55:37.165Z,68.42
2018-07-27T22:58:06.425Z,68.98
2018-07-27T23:00:35.865Z,68.27
2018-07-27T23:03:06.658Z,68.73
2018-07-27T23:05:35.774Z,67.71
2018-07-27T23:08:05.478Z,67.49
2018-07-27T23:10:34.621Z,68.74
2018-07-27T23:13:03.801Z,68.96
2018-07-27T23:15:33.438Z,68.42
2018-07-27T23:18:02.793Z,69.33
2018-07-27T23:20:32.890Z,70.77
2018-07-27T23:23:02.021Z,70.95
2018-07-27T23:25:31.806Z,69.90
2018-07-27T23:28:01.059Z,69.71
2018-07-27T23:30:30.986Z,69.11
2018-07-27T23:33:00.582Z,69.81
2018-07-27T23:35:29.912Z,69.68
2018-07-27T23:37:59.030Z,69.53
2018-07-27T23:40:28.664Z,70.30
2018-07-27T23:42:58.997Z,69.91
2018-07-27T23:45:29.056Z,70.58
2018-07-27T23:47:58.536Z,69.72
2018-07-27T23:50:27.964Z,71.03
2018-07-27T23:52:57.328Z,70.68
2018-07-27T23:55:27.082Z,69.69
2018-07-27T23:57:56.798Z,69.69
